sensor_id;sensor_type;location;lat;lon;timestamp;pressure;altitude;pressure_sealevel;temperature;humidity
40992;BME280;29633;49.168;9.848;2023-02-19T00:01:37;97297.47;;;12.38;69.28
40992;BME280;29633;49.168;9.848;2023-02-19T00:04:11;97301.97;;;12.36;69.33
40992;BME280;29633;49.168;9.848;2023-02-19T00:06:38;97299.28;;;12.37;69.63
40992;BME280;29633;49.168;9.848;2023-02-19T00:09:04;97295.72;;;12.38;69.32
40992;BME280;29633;49.168;9.848;2023-02-19T00:11:31;97301.88;;;12.37;69.50
40992;BME280;29633;49.168;9.848;2023-02-19T00:13:58;97295.84;;;12.37;69.24
40992;BME280;29633;49.168;9.848;2023-02-19T00:16:32;97289.56;;;12.39;69.33
40992;BME280;29633;49.168;9.848;2023-02-19T00:19:00;97293.09;;;12.38;69.54
40992;BME280;29633;49.168;9.848;2023-02-19T00:21:26;97293.09;;;12.38;69.38
40992;BME280;29633;49.168;9.848;2023-02-19T00:24:03;97293.94;;;12.39;69.40
40992;BME280;29633;49.168;9.848;2023-02-19T00:26:29;97300.78;;;12.40;69.49
40992;BME280;29633;49.168;9.848;2023-02-19T00:28:55;97300.91;;;12.38;69.44
40992;BME280;29633;49.168;9.848;2023-02-19T00:31:30;97303.50;;;12.38;69.47
40992;BME280;29633;49.168;9.848;2023-02-19T00:33:58;97304.34;;;12.39;69.47
40992;BME280;29633;49.168;9.848;2023-02-19T00:36:25;97293.94;;;12.39;69.34
40992;BME280;29633;49.168;9.848;2023-02-19T00:38:50;97309.28;;;12.42;69.41
40992;BME280;29633;49.168;9.848;2023-02-19T00:41:17;97302.47;;;12.41;69.42
40992;BME280;29633;49.168;9.848;2023-02-19T00:43:55;97288.88;;;12.37;69.66
40992;BME280;29633;49.168;9.848;2023-02-19T00:46:26;97290.50;;;12.38;69.53
40992;BME280;29633;49.168;9.848;2023-02-19T00:48:53;97284.38;;;12.39;69.54
40992;BME280;29633;49.168;9.848;2023-02-19T00:51:20;97276.69;;;12.38;69.51
40992;BME280;29633;49.168;9.848;2023-02-19T00:53:46;97269.13;;;12.34;69.47
40992;BME280;29633;49.168;9.848;2023-02-19T00:56:12;97271.97;;;12.31;69.70
40992;BME280;29633;49.168;9.848;2023-02-19T00:58:38;97265.13;;;12.30;69.93
40992;BME280;29633;49.168;9.848;2023-02-19T01:01:04;97260.06;;;12.29;69.57
40992;BME280;29633;49.168;9.848;2023-02-19T01:03:31;97253.31;;;12.26;69.67
40992;BME280;29633;49.168;9.848;2023-02-19T01:05:57;97228.53;;;12.22;69.75
40992;BME280;29633;49.168;9.848;2023-02-19T01:08:23;97215.75;;;12.19;70.08
40992;BME280;29633;49.168;9.848;2023-02-19T01:10:49;97230.91;;;12.14;70.08
40992;BME280;29633;49.168;9.848;2023-02-19T01:13:15;97238.22;;;12.09;69.90
40992;BME280;29633;49.168;9.848;2023-02-19T01:15:41;97239.41;;;12.05;70.05
40992;BME280;29633;49.168;9.848;2023-02-19T01:18:07;97235.41;;;12.01;70.22
40992;BME280;29633;49.168;9.848;2023-02-19T01:20:33;97237.06;;;12.02;70.14
40992;BME280;29633;49.168;9.848;2023-02-19T01:22:58;97237.06;;;12.02;70.34
40992;BME280;29633;49.168;9.848;2023-02-19T01:25:24;97231.75;;;12.04;70.17
40992;BME280;29633;49.168;9.848;2023-02-19T01:27:50;97240.00;;;12.09;70.36
40992;BME280;29633;49.168;9.848;2023-02-19T01:30:15;97228.56;;;12.11;70.00
40992;BME280;29633;49.168;9.848;2023-02-19T01:32:41;97235.38;;;12.12;70.16
40992;BME280;29633;49.168;9.848;2023-02-19T01:35:07;97220.38;;;12.16;70.23
40992;BME280;29633;49.168;9.848;2023-02-19T01:37:33;97228.63;;;12.21;69.94
40992;BME280;29633;49.168;9.848;2023-02-19T01:39:59;97229.31;;;12.23;69.72
40992;BME280;29633;49.168;9.848;2023-02-19T01:42:24;97226.72;;;12.23;69.91
40992;BME280;29633;49.168;9.848;2023-02-19T01:47:18;97217.66;;;12.17;70.06
40992;BME280;29633;49.168;9.848;2023-02-19T01:49:53;97208.94;;;12.18;70.12
40992;BME280;29633;49.168;9.848;2023-02-19T01:52:31;97207.59;;;12.24;70.01
40992;BME280;29633;49.168;9.848;2023-02-19T01:54:59;97203.34;;;12.23;70.00
40992;BME280;29633;49.168;9.848;2023-02-19T01:57:29;97207.34;;;12.27;69.98
40992;BME280;29633;49.168;9.848;2023-02-19T02:00:00;97203.81;;;12.28;69.84
40992;BME280;29633;49.168;9.848;2023-02-19T02:02:27;97198.59;;;12.28;70.06
40992;BME280;29633;49.168;9.848;2023-02-19T02:04:55;97198.84;;;12.25;70.05
40992;BME280;29633;49.168;9.848;2023-02-19T02:07:21;97202.41;;;12.24;70.18
40992;BME280;29633;49.168;9.848;2023-02-19T02:10:06;97213.50;;;12.26;69.98
40992;BME280;29633;49.168;9.848;2023-02-19T02:12:49;97205.72;;;12.26;70.08
40992;BME280;29633;49.168;9.848;2023-02-19T02:15:15;97199.53;;;12.27;70.04
40992;BME280;29633;49.168;9.848;2023-02-19T02:17:57;97201.91;;;12.30;69.98
40992;BME280;29633;49.168;9.848;2023-02-19T02:20:32;97204.28;;;12.33;69.95
40992;BME280;29633;49.168;9.848;2023-02-19T02:28:37;97191.50;;;12.30;70.11
40992;BME280;29633;49.168;9.848;2023-02-19T02:31:54;97180.31;;;12.29;70.19
40992;BME280;29633;49.168;9.848;2023-02-19T02:34:05;97170.94;;;12.27;70.17
40992;BME280;29633;49.168;9.848;2023-02-19T02:36:36;97175.09;;;12.29;69.91
40992;BME280;29633;49.168;9.848;2023-02-19T02:39:05;97173.44;;;12.28;70.31
40992;BME280;29633;49.168;9.848;2023-02-19T02:41:32;97181.25;;;12.28;70.27
40992;BME280;29633;49.168;9.848;2023-02-19T02:43:58;97181.34;;;12.27;70.11
40992;BME280;29633;49.168;9.848;2023-02-19T02:46:27;97175.72;;;12.22;70.21
40992;BME280;29633;49.168;9.848;2023-02-19T02:48:55;97186.13;;;12.22;70.28
40992;BME280;29633;49.168;9.848;2023-02-19T02:51:32;97181.53;;;12.14;70.52
40992;BME280;29633;49.168;9.848;2023-02-19T02:54:12;97190.50;;;12.10;70.66
40992;BME280;29633;49.168;9.848;2023-02-19T02:56:57;97182.50;;;12.02;70.75
40992;BME280;29633;49.168;9.848;2023-02-19T02:59:25;97171.41;;;12.00;70.78
40992;BME280;29633;49.168;9.848;2023-02-19T03:02:12;97183.69;;;11.98;70.77
40992;BME280;29633;49.168;9.848;2023-02-19T03:04:57;97176.97;;;11.96;70.88
40992;BME280;29633;49.168;9.848;2023-02-19T03:07:55;97181.47;;;11.94;70.94
40992;BME280;29633;49.168;9.848;2023-02-19T03:10:26;97171.19;;;11.92;71.12
40992;BME280;29633;49.168;9.848;2023-02-19T03:12:53;97178.03;;;11.93;71.22
40992;BME280;29633;49.168;9.848;2023-02-19T03:15:42;97163.75;;;11.88;71.06
40992;BME280;29633;49.168;9.848;2023-02-19T03:18:29;97175.47;;;11.82;71.13
40992;BME280;29633;49.168;9.848;2023-02-19T03:21:16;97156.81;;;11.77;71.08
40992;BME280;29633;49.168;9.848;2023-02-19T03:23:45;97151.97;;;11.72;71.29
40992;BME280;29633;49.168;9.848;2023-02-19T03:26:30;97153.13;;;11.68;71.24
40992;BME280;29633;49.168;9.848;2023-02-19T03:28:57;97149.84;;;11.66;71.45
40992;BME280;29633;49.168;9.848;2023-02-19T03:31:42;97149.25;;;11.63;71.66
40992;BME280;29633;49.168;9.848;2023-02-19T03:34:11;97155.50;;;11.60;71.69
40992;BME280;29633;49.168;9.848;2023-02-19T03:36:43;97138.28;;;11.59;71.51
40992;BME280;29633;49.168;9.848;2023-02-19T03:39:10;97147.47;;;11.63;71.54
40992;BME280;29633;49.168;9.848;2023-02-19T03:41:48;97149.84;;;11.66;71.51
40992;BME280;29633;49.168;9.848;2023-02-19T03:44:29;97147.00;;;11.69;71.42
40992;BME280;29633;49.168;9.848;2023-02-19T03:46:59;97146.06;;;11.70;71.42
40992;BME280;29633;49.168;9.848;2023-02-19T03:49:44;97144.31;;;11.71;71.31
40992;BME280;29633;49.168;9.848;2023-02-19T03:55:38;97149.72;;;11.68;71.35
40992;BME280;29633;49.168;9.848;2023-02-19T03:58:17;97148.31;;;11.64;71.69
40992;BME280;29633;49.168;9.848;2023-02-19T04:03:22;97167.53;;;11.61;71.56
40992;BME280;29633;49.168;9.848;2023-02-19T04:05:52;97164.50;;;11.56;71.75
40992;BME280;29633;49.168;9.848;2023-02-19T04:08:21;97163.75;;;11.54;71.86
40992;BME280;29633;49.168;9.848;2023-02-19T04:10:47;97176.06;;;11.52;71.86
40992;BME280;29633;49.168;9.848;2023-02-19T04:13:20;97153.03;;;11.48;72.05
40992;BME280;29633;49.168;9.848;2023-02-19T04:15:47;97171.34;;;11.46;71.87
40992;BME280;29633;49.168;9.848;2023-02-19T04:18:20;97165.56;;;11.43;72.20
40992;BME280;29633;49.168;9.848;2023-02-19T04:20:47;97178.41;;;11.44;72.09
40992;BME280;29633;49.168;9.848;2023-02-19T04:23:15;97179.34;;;11.43;72.18
40992;BME280;29633;49.168;9.848;2023-02-19T04:25:44;97187.03;;;11.45;72.10
40992;BME280;29633;49.168;9.848;2023-02-19T04:28:09;97187.13;;;11.43;72.12
40992;BME280;29633;49.168;9.848;2023-02-19T04:30:37;97190.69;;;11.42;72.31
40992;BME280;29633;49.168;9.848;2023-02-19T04:33:02;97196.81;;;11.41;72.26
40992;BME280;29633;49.168;9.848;2023-02-19T04:35:28;97196.94;;;11.40;72.12
40992;BME280;29633;49.168;9.848;2023-02-19T04:37:54;97212.88;;;11.35;72.50
40992;BME280;29633;49.168;9.848;2023-02-19T04:40:19;97204.59;;;11.30;72.62
40992;BME280;29633;49.168;9.848;2023-02-19T04:42:45;97222.16;;;11.26;72.54
40992;BME280;29633;49.168;9.848;2023-02-19T04:45:13;97216.16;;;11.26;72.58
40992;BME280;29633;49.168;9.848;2023-02-19T04:47:38;97221.25;;;11.27;72.68
40992;BME280;29633;49.168;9.848;2023-02-19T04:50:04;97220.41;;;11.27;72.62
40992;BME280;29633;49.168;9.848;2023-02-19T04:52:30;97217.91;;;11.25;72.82
40992;BME280;29633;49.168;9.848;2023-02-19T04:54:57;97235.28;;;11.25;73.04
40992;BME280;29633;49.168;9.848;2023-02-19T04:57:23;97230.78;;;11.27;72.55
40992;BME280;29633;49.168;9.848;2023-02-19T04:59:49;97221.09;;;11.29;72.76
40992;BME280;29633;49.168;9.848;2023-02-19T05:02:14;97215.81;;;11.30;72.61
40992;BME280;29633;49.168;9.848;2023-02-19T05:04:40;97221.94;;;11.29;72.59
40992;BME280;29633;49.168;9.848;2023-02-19T05:07:05;97226.44;;;11.27;72.63
40992;BME280;29633;49.168;9.848;2023-02-19T05:09:31;97243.66;;;11.28;72.58
40992;BME280;29633;49.168;9.848;2023-02-19T05:11:57;97223.84;;;11.27;72.60
40992;BME280;29633;49.168;9.848;2023-02-19T05:14:22;97222.50;;;11.22;72.80
40992;BME280;29633;49.168;9.848;2023-02-19T05:16:48;97227.94;;;11.19;72.91
40992;BME280;29633;49.168;9.848;2023-02-19T05:19:13;97229.84;;;11.17;72.97
40992;BME280;29633;49.168;9.848;2023-02-19T05:21:39;97222.06;;;11.17;72.70
40992;BME280;29633;49.168;9.848;2023-02-19T05:24:05;97235.03;;;11.17;72.89
40992;BME280;29633;49.168;9.848;2023-02-19T05:26:31;97233.13;;;11.19;72.76
40992;BME280;29633;49.168;9.848;2023-02-19T05:28:58;97223.34;;;11.22;72.66
40992;BME280;29633;49.168;9.848;2023-02-19T05:31:23;97214.53;;;11.25;72.57
40992;BME280;29633;49.168;9.848;2023-02-19T05:33:49;97215.13;;;11.28;72.55
40992;BME280;29633;49.168;9.848;2023-02-19T05:36:19;97209.44;;;11.34;72.34
40992;BME280;29633;49.168;9.848;2023-02-19T05:38:45;97212.75;;;11.36;72.11
40992;BME280;29633;49.168;9.848;2023-02-19T05:41:12;97208.97;;;11.41;72.29
40992;BME280;29633;49.168;9.848;2023-02-19T05:43:39;97207.19;;;11.41;72.24
40992;BME280;29633;49.168;9.848;2023-02-19T05:46:05;97213.22;;;11.42;72.19
40992;BME280;29633;49.168;9.848;2023-02-19T05:48:31;97220.88;;;11.43;72.20
40992;BME280;29633;49.168;9.848;2023-02-19T05:51:13;97227.63;;;11.46;71.97
40992;BME280;29633;49.168;9.848;2023-02-19T05:53:39;97221.47;;;11.47;72.16
40992;BME280;29633;49.168;9.848;2023-02-19T05:56:31;97214.50;;;11.47;72.03
40992;BME280;29633;49.168;9.848;2023-02-19T05:58:58;97222.28;;;11.47;72.00
40992;BME280;29633;49.168;9.848;2023-02-19T06:01:26;97225.88;;;11.46;71.86
40992;BME280;29633;49.168;9.848;2023-02-19T06:03:52;97222.53;;;11.44;72.26
40992;BME280;29633;49.168;9.848;2023-02-19T06:06:19;97218.28;;;11.43;72.21
40992;BME280;29633;49.168;9.848;2023-02-19T06:08:44;97223.25;;;11.46;72.21
40992;BME280;29633;49.168;9.848;2023-02-19T06:11:10;97229.25;;;11.47;72.19
40992;BME280;29633;49.168;9.848;2023-02-19T06:13:36;97215.47;;;11.46;72.14
40992;BME280;29633;49.168;9.848;2023-02-19T06:16:06;97212.16;;;11.44;72.33
40992;BME280;29633;49.168;9.848;2023-02-19T06:18:32;97213.22;;;11.42;72.17
40992;BME280;29633;49.168;9.848;2023-02-19T06:21:05;97216.16;;;11.37;72.25
40992;BME280;29633;49.168;9.848;2023-02-19T06:23:31;97222.44;;;11.34;72.36
40992;BME280;29633;49.168;9.848;2023-02-19T06:26:15;97220.53;;;11.36;72.42
40992;BME280;29633;49.168;9.848;2023-02-19T06:28:42;97223.25;;;11.35;72.32
40992;BME280;29633;49.168;9.848;2023-02-19T06:31:08;97219.09;;;11.32;72.44
40992;BME280;29633;49.168;9.848;2023-02-19T06:33:35;97218.31;;;11.32;72.42
40992;BME280;29633;49.168;9.848;2023-02-19T06:36:02;97230.22;;;11.34;72.08
40992;BME280;29633;49.168;9.848;2023-02-19T06:38:28;97226.53;;;11.37;72.30
40992;BME280;29633;49.168;9.848;2023-02-19T06:40:59;97231.75;;;11.37;72.16
40992;BME280;29633;49.168;9.848;2023-02-19T06:43:25;97230.06;;;11.36;72.24
40992;BME280;29633;49.168;9.848;2023-02-19T06:45:50;97243.78;;;11.38;72.17
40992;BME280;29633;49.168;9.848;2023-02-19T06:48:18;97230.91;;;11.36;72.10
40992;BME280;29633;49.168;9.848;2023-02-19T06:50:44;97254.28;;;11.36;72.39
40992;BME280;29633;49.168;9.848;2023-02-19T06:53:10;97265.63;;;11.35;72.34
40992;BME280;29633;49.168;9.848;2023-02-19T06:55:37;97262.44;;;11.32;72.21
40992;BME280;29633;49.168;9.848;2023-02-19T06:58:05;97261.69;;;11.30;72.13
40992;BME280;29633;49.168;9.848;2023-02-19T07:00:31;97260.88;;;11.29;72.07
40992;BME280;29633;49.168;9.848;2023-02-19T07:02:57;97265.97;;;11.31;72.36
40992;BME280;29633;49.168;9.848;2023-02-19T07:05:23;97265.03;;;11.32;72.49
40992;BME280;29633;49.168;9.848;2023-02-19T07:07:49;97266.78;;;11.31;72.27
40992;BME280;29633;49.168;9.848;2023-02-19T07:10:15;97275.16;;;11.35;72.21
40992;BME280;29633;49.168;9.848;2023-02-19T07:12:41;97268.06;;;11.37;72.18
40992;BME280;29633;49.168;9.848;2023-02-19T07:15:07;97272.34;;;11.38;72.09
40992;BME280;29633;49.168;9.848;2023-02-19T07:17:33;97257.69;;;11.37;71.96
40992;BME280;29633;49.168;9.848;2023-02-19T07:19:59;97279.53;;;11.34;72.14
40992;BME280;29633;49.168;9.848;2023-02-19T07:22:25;97279.03;;;11.29;72.21
40992;BME280;29633;49.168;9.848;2023-02-19T07:24:50;97283.41;;;11.29;72.29
40992;BME280;29633;49.168;9.848;2023-02-19T07:27:16;97289.78;;;11.25;72.47
40992;BME280;29633;49.168;9.848;2023-02-19T07:29:42;97296.84;;;11.23;72.48
40992;BME280;29633;49.168;9.848;2023-02-19T07:32:08;97290.81;;;11.22;72.53
40992;BME280;29633;49.168;9.848;2023-02-19T07:34:33;97304.53;;;11.24;72.50
40992;BME280;29633;49.168;9.848;2023-02-19T07:36:59;97300.88;;;11.27;72.38
40992;BME280;29633;49.168;9.848;2023-02-19T07:39:25;97304.06;;;11.30;72.32
40992;BME280;29633;49.168;9.848;2023-02-19T07:41:50;97306.31;;;11.35;72.35
40992;BME280;29633;49.168;9.848;2023-02-19T07:44:16;97319.66;;;11.42;72.15
40992;BME280;29633;49.168;9.848;2023-02-19T07:46:43;97319.75;;;11.40;72.33
40992;BME280;29633;49.168;9.848;2023-02-19T07:49:08;97320.00;;;11.37;72.10
40992;BME280;29633;49.168;9.848;2023-02-19T07:51:34;97323.75;;;11.33;72.08
40992;BME280;29633;49.168;9.848;2023-02-19T07:54:00;97322.31;;;11.29;72.33
40992;BME280;29633;49.168;9.848;2023-02-19T07:56:25;97329.88;;;11.21;72.60
40992;BME280;29633;49.168;9.848;2023-02-19T07:58:53;97331.28;;;11.14;72.84
40992;BME280;29633;49.168;9.848;2023-02-19T08:01:20;97329.59;;;11.13;72.79
40992;BME280;29633;49.168;9.848;2023-02-19T08:04:05;97345.03;;;11.14;72.72
40992;BME280;29633;49.168;9.848;2023-02-19T08:06:31;97345.78;;;11.16;72.68
40992;BME280;29633;49.168;9.848;2023-02-19T08:08:59;97339.53;;;11.19;72.71
40992;BME280;29633;49.168;9.848;2023-02-19T08:11:25;97342.63;;;11.24;72.63
40992;BME280;29633;49.168;9.848;2023-02-19T08:14:08;97356.44;;;11.24;72.56
40992;BME280;29633;49.168;9.848;2023-02-19T08:16:34;97358.19;;;11.24;72.81
40992;BME280;29633;49.168;9.848;2023-02-19T08:19:00;97361.47;;;11.26;72.65
40992;BME280;29633;49.168;9.848;2023-02-19T08:21:25;97357.84;;;11.28;72.51
40992;BME280;29633;49.168;9.848;2023-02-19T08:23:51;97363.06;;;11.28;72.54
40992;BME280;29633;49.168;9.848;2023-02-19T08:26:17;97362.91;;;11.30;72.43
40992;BME280;29633;49.168;9.848;2023-02-19T08:28:42;97378.16;;;11.34;72.67
40992;BME280;29633;49.168;9.848;2023-02-19T08:31:10;97387.47;;;11.37;72.66
40992;BME280;29633;49.168;9.848;2023-02-19T08:33:36;97375.22;;;11.39;72.24
40992;BME280;29633;49.168;9.848;2023-02-19T08:36:03;97387.84;;;11.44;72.57
40992;BME280;29633;49.168;9.848;2023-02-19T08:38:30;97394.94;;;11.42;72.58
40992;BME280;29633;49.168;9.848;2023-02-19T08:40:56;97391.50;;;11.41;72.52
40992;BME280;29633;49.168;9.848;2023-02-19T08:43:22;97398.47;;;11.41;72.52
40992;BME280;29633;49.168;9.848;2023-02-19T08:45:48;97396.00;;;11.39;72.75
40992;BME280;29633;49.168;9.848;2023-02-19T08:48:16;97399.53;;;11.38;72.84
40992;BME280;29633;49.168;9.848;2023-02-19T08:50:42;97396.94;;;11.38;72.87
40992;BME280;29633;49.168;9.848;2023-02-19T08:53:08;97400.97;;;11.42;72.70
40992;BME280;29633;49.168;9.848;2023-02-19T08:55:36;97398.84;;;11.47;72.60
40992;BME280;29633;49.168;9.848;2023-02-19T08:58:02;97405.47;;;11.51;72.51
40992;BME280;29633;49.168;9.848;2023-02-19T09:00:28;97405.22;;;11.54;72.46
40992;BME280;29633;49.168;9.848;2023-02-19T09:02:54;97416.13;;;11.59;72.55
40992;BME280;29633;49.168;9.848;2023-02-19T09:05:21;97409.75;;;11.63;72.24
40992;BME280;29633;49.168;9.848;2023-02-19T09:07:47;97412.81;;;11.68;72.30
40992;BME280;29633;49.168;9.848;2023-02-19T09:10:13;97412.66;;;11.71;72.40
40992;BME280;29633;49.168;9.848;2023-02-19T09:12:39;97424.66;;;11.72;72.33
40992;BME280;29633;49.168;9.848;2023-02-19T09:15:05;97431.53;;;11.73;72.27
40992;BME280;29633;49.168;9.848;2023-02-19T09:17:31;97434.97;;;11.74;72.35
40992;BME280;29633;49.168;9.848;2023-02-19T09:19:56;97424.47;;;11.75;72.14
40992;BME280;29633;49.168;9.848;2023-02-19T09:22:22;97440.06;;;11.75;72.34
40992;BME280;29633;49.168;9.848;2023-02-19T09:24:48;97443.34;;;11.77;72.42
40992;BME280;29633;49.168;9.848;2023-02-19T09:27:15;97442.41;;;11.78;72.40
40992;BME280;29633;49.168;9.848;2023-02-19T09:29:41;97449.84;;;11.83;72.24
40992;BME280;29633;49.168;9.848;2023-02-19T09:32:07;97458.47;;;11.83;72.42
40992;BME280;29633;49.168;9.848;2023-02-19T09:34:33;97458.38;;;11.85;72.25
40992;BME280;29633;49.168;9.848;2023-02-19T09:36:58;97451.41;;;11.86;72.23
40992;BME280;29633;49.168;9.848;2023-02-19T09:39:24;97462.72;;;11.84;72.35
40992;BME280;29633;49.168;9.848;2023-02-19T09:41:53;97464.50;;;11.84;72.29
40992;BME280;29633;49.168;9.848;2023-02-19T09:44:31;97454.84;;;11.86;72.37
40992;BME280;29633;49.168;9.848;2023-02-19T09:46:59;97454.59;;;11.89;71.89
40992;BME280;29633;49.168;9.848;2023-02-19T09:49:33;97463.94;;;11.92;72.21
40992;BME280;29633;49.168;9.848;2023-02-19T09:52:06;97475.75;;;11.96;72.24
40992;BME280;29633;49.168;9.848;2023-02-19T09:54:35;97466.19;;;11.96;72.18
40992;BME280;29633;49.168;9.848;2023-02-19T09:57:02;97469.38;;;12.00;72.17
40992;BME280;29633;49.168;9.848;2023-02-19T09:59:42;97467.25;;;12.05;72.17
40992;BME280;29633;49.168;9.848;2023-02-19T10:02:22;97477.66;;;12.05;72.12
40992;BME280;29633;49.168;9.848;2023-02-19T10:04:49;97468.09;;;12.05;72.11
40992;BME280;29633;49.168;9.848;2023-02-19T10:07:30;97455.94;;;12.06;72.06
40992;BME280;29633;49.168;9.848;2023-02-19T10:10:09;97445.53;;;12.06;72.17
40992;BME280;29633;49.168;9.848;2023-02-19T10:12:48;97453.22;;;12.07;72.25
40992;BME280;29633;49.168;9.848;2023-02-19T10:15:23;97450.38;;;12.10;71.89
40992;BME280;29633;49.168;9.848;2023-02-19T10:17:50;97457.13;;;12.13;72.14
40992;BME280;29633;49.168;9.848;2023-02-19T10:20:18;97466.00;;;12.21;72.10
40992;BME280;29633;49.168;9.848;2023-02-19T10:22:51;97467.44;;;12.25;72.02
40992;BME280;29633;49.168;9.848;2023-02-19T10:25:21;97472.50;;;12.27;71.83
40992;BME280;29633;49.168;9.848;2023-02-19T10:27:47;97472.63;;;12.25;71.90
40992;BME280;29633;49.168;9.848;2023-02-19T10:30:21;97472.97;;;12.21;71.90
40992;BME280;29633;49.168;9.848;2023-02-19T10:33:03;97479.34;;;12.17;71.93
40992;BME280;29633;49.168;9.848;2023-02-19T10:35:35;97488.06;;;12.16;72.15
40992;BME280;29633;49.168;9.848;2023-02-19T10:38:00;97485.25;;;12.19;72.21
40992;BME280;29633;49.168;9.848;2023-02-19T10:40:27;97495.53;;;12.20;72.02
40992;BME280;29633;49.168;9.848;2023-02-19T10:42:56;97507.59;;;12.21;71.85
40992;BME280;29633;49.168;9.848;2023-02-19T10:45:46;97511.25;;;12.19;72.00
40992;BME280;29633;49.168;9.848;2023-02-19T10:48:30;97499.44;;;12.15;72.01
40992;BME280;29633;49.168;9.848;2023-02-19T10:51:00;97514.28;;;12.13;72.21
40992;BME280;29633;49.168;9.848;2023-02-19T10:53:44;97511.69;;;12.13;72.25
40992;BME280;29633;49.168;9.848;2023-02-19T10:56:15;97513.72;;;12.20;71.99
40992;BME280;29633;49.168;9.848;2023-02-19T10:58:42;97510.78;;;12.25;71.97
40992;BME280;29633;49.168;9.848;2023-02-19T11:03:41;97509.25;;;12.33;71.79
40992;BME280;29633;49.168;9.848;2023-02-19T11:06:08;97517.88;;;12.34;71.80
40992;BME280;29633;49.168;9.848;2023-02-19T11:08:54;97516.94;;;12.35;71.74
40992;BME280;29633;49.168;9.848;2023-02-19T11:13:54;97516.94;;;12.35;71.79
40992;BME280;29633;49.168;9.848;2023-02-19T11:16:21;97507.47;;;12.34;71.94
40992;BME280;29633;49.168;9.848;2023-02-19T11:18:54;97515.50;;;12.31;72.03
40992;BME280;29633;49.168;9.848;2023-02-19T11:21:28;97518.34;;;12.28;71.89
40992;BME280;29633;49.168;9.848;2023-02-19T11:24:00;97515.16;;;12.24;72.13
40992;BME280;29633;49.168;9.848;2023-02-19T11:26:30;97515.97;;;12.25;72.03
40992;BME280;29633;49.168;9.848;2023-02-19T11:28:58;97516.09;;;12.23;71.84
40992;BME280;29633;49.168;9.848;2023-02-19T11:34:22;97509.25;;;12.22;72.06
40992;BME280;29633;49.168;9.848;2023-02-19T11:37:16;97520.25;;;12.26;72.19
40992;BME280;29633;49.168;9.848;2023-02-19T11:39:50;97507.63;;;12.32;71.90
40992;BME280;29633;49.168;9.848;2023-02-19T11:50:23;97536.06;;;12.34;72.00
40992;BME280;29633;49.168;9.848;2023-02-19T11:55:55;97547.78;;;12.28;72.16
40992;BME280;29633;49.168;9.848;2023-02-19T12:12:43;97544.66;;;12.69;71.67
40992;BME280;29633;49.168;9.848;2023-02-19T12:18:56;97551.75;;;12.90;71.73
40992;BME280;29633;49.168;9.848;2023-02-19T12:21:48;97543.69;;;12.93;71.62
40992;BME280;29633;49.168;9.848;2023-02-19T12:35:41;97535.66;;;13.07;71.83
40992;BME280;29633;49.168;9.848;2023-02-19T12:41:06;97521.47;;;13.11;71.68
40992;BME280;29633;49.168;9.848;2023-02-19T12:43:39;97515.66;;;13.07;71.63
40992;BME280;29633;49.168;9.848;2023-02-19T12:46:13;97522.03;;;13.03;71.41
40992;BME280;29633;49.168;9.848;2023-02-19T12:48:53;97520.03;;;13.07;71.73
40992;BME280;29633;49.168;9.848;2023-02-19T12:51:37;97522.41;;;13.10;71.70
40992;BME280;29633;49.168;9.848;2023-02-19T12:54:11;97527.41;;;13.13;71.43
40992;BME280;29633;49.168;9.848;2023-02-19T12:56:40;97528.94;;;13.15;71.58
40992;BME280;29633;49.168;9.848;2023-02-19T12:59:32;97523.59;;;13.17;71.71
40992;BME280;29633;49.168;9.848;2023-02-19T13:07:19;97527.84;;;13.18;71.44
40992;BME280;29633;49.168;9.848;2023-02-19T13:12:39;97529.28;;;13.22;71.46
40992;BME280;29633;49.168;9.848;2023-02-19T13:15:25;97528.59;;;13.20;71.51
40992;BME280;29633;49.168;9.848;2023-02-19T13:17:54;97530.22;;;13.21;71.45
40992;BME280;29633;49.168;9.848;2023-02-19T13:20:36;97518.28;;;13.18;71.43
40992;BME280;29633;49.168;9.848;2023-02-19T13:23:17;97524.31;;;13.19;71.37
40992;BME280;29633;49.168;9.848;2023-02-19T13:37:12;97517.09;;;13.11;71.58
40992;BME280;29633;49.168;9.848;2023-02-19T13:39:49;97518.78;;;13.12;71.67
40992;BME280;29633;49.168;9.848;2023-02-19T13:42:32;97498.38;;;13.17;71.46
40992;BME280;29633;49.168;9.848;2023-02-19T13:45:00;97497.91;;;13.23;71.27
40992;BME280;29633;49.168;9.848;2023-02-19T13:50:20;97497.75;;;13.36;71.01
40992;BME280;29633;49.168;9.848;2023-02-19T13:52:46;97484.69;;;13.47;71.30
40992;BME280;29633;49.168;9.848;2023-02-19T14:01:14;97495.09;;;13.58;71.42
40992;BME280;29633;49.168;9.848;2023-02-19T14:04:06;97491.84;;;13.66;71.08
40992;BME280;29633;49.168;9.848;2023-02-19T14:30:45;97545.53;;;13.57;70.73
40992;BME280;29633;49.168;9.848;2023-02-19T14:33:14;97548.16;;;13.46;70.83
40992;BME280;29633;49.168;9.848;2023-02-19T14:35:45;97559.41;;;13.47;70.65
40992;BME280;29633;49.168;9.848;2023-02-19T14:38:39;97562.84;;;13.47;70.70
40992;BME280;29633;49.168;9.848;2023-02-19T14:41:06;97556.34;;;13.42;70.60
40992;BME280;29633;49.168;9.848;2023-02-19T14:43:35;97543.56;;;13.39;70.55
40992;BME280;29633;49.168;9.848;2023-02-19T14:46:08;97544.53;;;13.38;70.66
40992;BME280;29633;49.168;9.848;2023-02-19T14:48:41;97554.69;;;13.41;70.67
40992;BME280;29633;49.168;9.848;2023-02-19T14:51:22;97553.16;;;13.38;70.55
40992;BME280;29633;49.168;9.848;2023-02-19T14:53:50;97564.53;;;13.37;70.42
40992;BME280;29633;49.168;9.848;2023-02-19T14:56:22;97561.34;;;13.34;70.72
40992;BME280;29633;49.168;9.848;2023-02-19T15:01:35;97566.56;;;13.22;70.64
40992;BME280;29633;49.168;9.848;2023-02-19T15:04:01;97573.28;;;13.14;70.62
40992;BME280;29633;49.168;9.848;2023-02-19T15:06:27;97584.16;;;13.08;70.97
40992;BME280;29633;49.168;9.848;2023-02-19T15:08:57;97592.56;;;13.00;70.80
40992;BME280;29633;49.168;9.848;2023-02-19T15:11:25;97588.78;;;12.93;70.97
40992;BME280;29633;49.168;9.848;2023-02-19T15:14:03;97589.13;;;12.89;71.04
40992;BME280;29633;49.168;9.848;2023-02-19T15:16:31;97582.50;;;12.84;70.92